Kingsland, Texas
Current Conditions -  °F | °C
As of 6:35 PM on Saturday 25 Oct 2014 (Local Time) from KDZB Reporting Station
Clear Clear  
Wind Chill: 82°   Ceiling: Unl
Heat Index: 82°   Visibility: 10mi
Dew Point: 55°   Wind: 0mph
Humidity: 39%   Direction: NA
Pressure: 30.09"   Gusts: NA
Location:  30.66°N, 98.44°W
Report Text: KDZB 252335Z AUTO 00000KT 10SM CLR 28/13 A3009 RMK AO2 T02760126
Loading
Personal Weather Stations






























Interactive Weather Map New forecast layout! Learn more

10-Day Weather Forecast

Advertisements
Track Severe Weather on mobile